Flight Track Log - Related Links

Times and Time Zones

All times are in EDT time to prevent confusion due to time zone crossing. See the N711FG flight status page for this flight to view local times or setup timezone preferences in your user account.

Time Position Orientation Groundspeed Altitude Reporting Facility
EDT Latitude Longitude Course Direction KTS MPH feet Rate Location/Type
Sun 09:51:03 AM 36.1833 -86.6667 15° North 223 257 3,300  Level Nashville TRACON
Sun 09:52:08 AM 36.2119 -86.7378 297° West 289 333 5,900 2,544 Climbing Memphis Center
Sun 09:53:08 AM 36.1469 -86.7919 214° Southwest 291 335 8,600 2,950 Climbing Memphis Center
Sun 09:54:08 AM 36.0775 -86.8414 210° Southwest 341 392 11,800 3,300 Climbing Memphis Center
Sun 09:55:08 AM 36.0017 -86.8958 210° Southwest 341 392 15,200 3,400 Climbing Memphis Center
Sun 09:56:08 AM 35.9217 -86.9378 203° Southwest 326 375 18,600 3,150 Climbing Memphis Center
Sun 09:57:08 AM 35.8350 -86.9744 199° South 326 375 21,500 2,850 Climbing Memphis Center
Sun 09:58:08 AM 35.7464 -87.0089 198° South 332 382 24,300 2,700 Climbing Memphis Center
Sun 09:59:08 AM 35.6494 -87.0511 199° South 338 389 26,900 2,650 Climbing Memphis Center
Sun 10:00:08 AM 35.5567 -87.0881 198° South 344 396 29,600 2,450 Climbing Memphis Center
Sun 10:01:08 AM 35.4678 -87.1247 199° South 344 396 31,800 1,550 Climbing Memphis Center
Sun 10:02:08 AM 35.3978 -87.1528 198° South 344 396 32,700 850 Climbing Memphis Center
Sun 10:03:08 AM 35.2944 -87.1950 198° South 349 402 33,500 850 Climbing Memphis Center
Sun 10:04:08 AM 35.1911 -87.2369 198° South 371 427 34,400 1,000 Climbing Memphis Center
Sun 10:05:08 AM 35.0736 -87.2844 198° South 399 459 35,500 800 Climbing Memphis Center
Sun 10:06:08 AM 34.9703 -87.3264 198° South 399 459 36,000 250 Climbing Memphis Center
Sun 10:07:08 AM 34.8711 -87.3653 198° South 399 459 36,000  Level Memphis Center
Sun 10:08:08 AM 34.7617 -87.4097 198° South 405 466 36,000  Level Memphis Center
Sun 10:09:08 AM 34.6519 -87.4564 199° South 421 484 36,000  Level Memphis Center
Sun 10:10:08 AM 34.5383 -87.4981 197° South 416 479 36,000  Level Memphis Center
Sun 10:11:08 AM 34.4267 -87.5419 198° South 422 486 36,000  Level Memphis Center
Sun 10:12:08 AM 34.3067 -87.5889 198° South 434 499 36,000  Level Memphis Center
Sun 10:13:08 AM 34.1928 -87.6325 198° South 441 507 36,000  Level Memphis Center
Sun 10:14:08 AM 34.0686 -87.6842 199° South 441 507 36,000  Level Memphis Center
Sun 10:15:08 AM 33.9486 -87.7331 199° South 441 507 36,000  Level Memphis Center
Sun 10:16:08 AM 33.8369 -87.7739 197° South 436 502 36,000  Level Memphis Center
Sun 10:17:08 AM 33.7189 -87.8222 199° South 442 509 36,000  Level Memphis Center
Sun 10:18:08 AM 33.6050 -87.8681 199° South 442 509 36,000  Level Memphis Center
Sun 10:19:08 AM 33.4911 -87.9136 198° South 436 502 36,000  Level Memphis Center
Sun 10:20:08 AM 33.3792 -87.9567 198° South 436 502 36,000  Level Memphis Center
Sun 10:21:08 AM 33.2675 -87.9994 198° South 431 496 36,000  Level Memphis Center
Sun 10:22:08 AM 33.1575 -88.0419 198° South 426 490 36,000  Level Memphis Center
Sun 10:23:08 AM 33.0456 -88.0847 198° South 421 484 36,000  Level Memphis Center
Sun 10:24:08 AM 32.9483 -88.1217 198° South 413 475 36,000  Level Memphis Center
Sun 10:25:08 AM 32.8364 -88.1667 199° South 413 475 36,000  Level Memphis Center
Sun 10:26:08 AM 32.7222 -88.2114 198° South 423 487 36,000  Level Memphis Center
Sun 10:27:08 AM 32.6103 -88.2511 197° South 423 487 36,000  Level Memphis Center
Sun 10:28:08 AM 32.4983 -88.2956 199° South 423 487 36,000 -150 Level Memphis Center
Sun 10:29:08 AM 32.3758 -88.3453 199° South 423 487 35,700 -650 Descending Memphis Center
Sun 10:30:08 AM 32.2597 -88.3872 197° South 423 487 34,700 -1,000 Descending Memphis Center
Sun 10:31:08 AM 32.1558 -88.4214 196° South 429 494 33,700 -1,591 Descending Memphis Center
Sun 10:33:09 AM 31.9122 -88.5106 197° South 428 493 29,900 -1,836 Descending Houston Center
Sun 10:34:11 AM 31.8000 -88.5547 198° South 427 491 28,100 -927 Descending Houston Center
Sun 10:35:12 AM 31.6875 -88.5953 197° South 423 487 28,000 -976 Descending Houston Center
Sun 10:36:14 AM 31.5767 -88.6383 198° South 423 487 26,100 -1,951 Descending Houston Center
Sun 10:37:15 AM 31.4622 -88.6822 198° South 434 499 24,000 -2,049 Descending Houston Center
Sun 10:38:17 AM 31.3508 -88.7222 197° South 425 489 21,900 -2,244 Descending Houston Center
Sun 10:39:18 AM 31.2439 -88.7625 198° South 410 472 19,400 -3,073 Descending Houston Center
Sun 10:40:20 AM 31.1200 -88.8069 197° South 394 453 15,600 -3,463 Descending Houston Center
Sun 10:41:21 AM 31.0239 -88.8442 198° South 372 428 12,300 -2,244 Descending Houston Center
Sun 10:42:23 AM 30.9331 -88.8761 197° South 347 399 11,000 -878 Descending Houston Center
Sun 10:43:24 AM 30.8569 -88.9056 198° South 301 346 10,500 -732 Descending Houston Center
Sun 10:44:26 AM 30.7847 -88.9314 197° South 278 320 9,500 -1,220 Descending Houston Center
Sun 10:45:27 AM 30.7147 -88.9567 197° South 272 313 8,000 -1,756 Descending Houston Center
Sun 10:46:29 AM 30.6297 -88.9867 197° South 267 307 5,900 -1,610 Descending Houston Center
Sun 10:47:30 AM 30.5614 -88.9958 187° South 249 287 4,700 -1,024 Descending Houston Center
Sun 10:48:32 AM 30.5000 -88.9847 171° South 233 268 3,800 -726 Descending Houston Center
Sun 10:49:34 AM 30.4453 -88.9603 159° South 220 253 3,200 -829 Descending Houston Center
Sun 10:50:35 AM 30.4006 -88.9667 187° South 189 217 2,100 -829 Descending Houston Center
Sun 10:51:37 AM 30.3733 -89.0022 228° Southwest 160 184 1,500 -390 Descending Houston Center
Sun 10:52:38 AM 30.3639 -89.0519 258° West 153 176 1,300 -197 Descending Houston Center
Sun 10:54:00 AM 30.4000 -89.0667 270° West  Level FlightAware Approximate
Sun 11:01:00 AM 30.4073 -89.0701 270° West  Level Estimated

Login

Don't have an account? Register now (free) for customized features, flight alerts, and more!